Palacios, TX (77465)

6:51 PM CST on December 07, 2016 (GMT -0600)
Palacios Pavilion | | Change Station
Active Advisory: Wind Advisory

Elev 0 ft 28.70 °N, 96.22 °W | Updated 12 seconds ago

Overcast
Overcast
58.9 °F
Feels Like 58.9 °F
N
3.3
Wind Variable Wind from North
Gusts 10.0 mph

Today
High -- | Low -- °F
--% Chance of Precip.
Yesterday
High -- | Low -- °F
Precip. -- in
Pressure 30.05 in
Visibility 5.0 miles
Clouds Mostly Cloudy 1500 ft
Overcast 5500 ft
Dew Point 57 °F
Humidity 95%
Rainfall in
Snow Depth Not available.
7:05 AM 5:27 PM
First Quarter, 57% visible
METAR KPKV 080035Z AUTO 02005KT 5SM BR BKN015 OVC055 15/14 A3005 RMK AO2 T01450140
Pressure 30.05 in
Visibility 5.0 miles
Clouds Mostly Cloudy 1500 ft
Overcast 5500 ft
Dew Point 57 °F
Humidity 95%
Rainfall in
Snow Depth Not available.
7:05 AM 5:27 PM
First Quarter, 57% visible
METAR KPKV 080035Z AUTO 02005KT 5SM BR BKN015 OVC055 15/14 A3005 RMK AO2 T01450140

10-Day Weather Forecast

Almanac

Astronomy

Dec. 07, 2016 Rise Set
Actual Time
Civil Twilight
Nautical Twilight
Astronomical Twilight
Moon
Length of Visible Light
Length of Day
Tomorrow will be .
, % of the Moon is Illuminated

Today's Extremes

State Highs State Lows

Community

WunderPhotos

Upload Photos

1,956,237 photos uploaded!

WunderBlog® & News

Nearby

Air Quality

  Air Quality AQ Index Pollutant
Not available.

Snow Depth

Station Depth Elevation

Earthquake Activity

City Distance Mag. Time & Date
Minimum magnitude displayed is 2.5.

Coastal Water Temperatures

Place Temperature

Stations

Nearby Weather Stations

Station Location Temp. Windchill Dew Point Humidity Wind Precip. Elev Updated Type
                   

Watches & Warnings

Wind Advisory
Issued: 3:55 PM CST Dec. 7, 2016 – National Weather Service

... Wind Advisory in effect from 6 am to 6 PM CST Thursday...

The National Weather Service in Houston/Galveston has issued a
Wind Advisory... which is in effect from 6 am to 6 PM CST
Thursday.

* Event... north winds 20 to 30 mph with gusts of 35 mph.

* Timing... 6 am CST to 6 PM CST Thursday

* impact... windy conditions could impact travel on area highways
for high profile vehicles. Any outdoor tents... canopies or
bounce houses will need to be secured.

Precautionary/preparedness actions...

Drivers of vans... campers... trailers... and other high-profile
vehicles should be alert to the danger of these winds...
especially when driving along east to west oriented roads.